Richmond, TX

1:33 AM CDT on May 06, 2015 (GMT -0500)
Sugar Land Municipal-Hull | | Change Station
CLOSE
Current Station
Airport
Location: Houston Hull,
Elevation: 82 ft
Nearby Weather Stations

Elev 82 ft 29.62 °N, 95.66 °W | Updated 40 minutes ago

Overcast
Overcast
75 °F
Feels Like 75 °F
N
15
Wind Variable Wind from SE

Today
High -- | Low -- °F
--% Chance of Precip.
Yesterday
High -- | Low -- °F
Precip. -- in
6:36 AM 8:02 PM
Waning Gibbous, 95% visible
Pressure 30.00 in
Visibility 10.0 miles
Clouds Scattered Clouds 4000 ft
Mostly Cloudy 4700 ft
Overcast 9500 ft
Dew Point 68 °F
Humidity 79%
Rainfall 0.00 in
Snow Depth Not available.
UV 0 out of 12
Pollen 6.50 out of 12
Air Quality Not available.
Flu Activity Sporadic
METAR KSGR 060553Z AUTO 13013KT 10SM SCT040 BKN047 OVC095 24/20 A2999 RMK AO2 SLP158 60000 T02390200 10250 20239 402830200 50002

More Conditions Fewer Conditions

Pressure 30.00 in
Visibility 10.0 miles
Clouds Scattered Clouds 4000 ft
Mostly Cloudy 4700 ft
Overcast 9500 ft
Dew Point 68 °F
Humidity 79%
Rainfall 0.00 in
Snow Depth Not available.
UV 0 out of 12
Pollen 6.50 out of 12
Air Quality Not available.
Flu Activity Sporadic
METAR KSGR 060553Z AUTO 13013KT 10SM SCT040 BKN047 OVC095 24/20 A2999 RMK AO2 SLP158 60000 T02390200 10250 20239 402830200 50002

More Conditions Fewer Conditions

10-Day Weather Forecast

Almanac

Astronomy

May. 06, 2015 Rise Set
Actual Time
Civil Twilight
Nautical Twilight
Astronomical Twilight
Moon
Length of Visible Light
Length of Day
Tomorrow will be .
, % of the Moon is Illuminated

Today's Extremes

State Highs State Lows

Community

WunderPhotos

Upload Photos

1,818,850 photos uploaded!

WunderBlogs® & News

Nearby

Air Quality

  Air Quality AQ Index Pollutant
Not available.

Snow Depth

Station Depth Elevation

Earthquake Activity

City Distance Mag. Time & Date
Minimum magnitude displayed is 2.5.

Coastal Water Temperatures

Place Temperature

Stations

Nearby Weather Stations

Station Location Temp. Windchill Dew Point Humidity Wind Precip. Elev Updated Type